sensor_id;sensor_type;location;lat;lon;timestamp;pressure;altitude;pressure_sealevel;temperature;humidity
44926;BME280;30662;51.210;7.656;2023-03-18T00:00:37;150932.06;;;8.52;100.00
44926;BME280;30662;51.210;7.656;2023-03-18T00:03:03;150900.44;;;8.40;100.00
44926;BME280;30662;51.210;7.656;2023-03-18T00:05:29;150920.69;;;8.48;100.00
44926;BME280;30662;51.210;7.656;2023-03-18T00:07:55;150940.91;;;8.56;100.00
44926;BME280;30662;51.210;7.656;2023-03-18T00:10:21;150924.50;;;8.49;100.00
44926;BME280;30662;51.210;7.656;2023-03-18T00:12:49;150929.53;;;8.51;100.00
44926;BME280;30662;51.210;7.656;2023-03-18T00:15:15;150934.56;;;8.53;100.00
44926;BME280;30662;51.210;7.656;2023-03-18T00:17:42;150939.66;;;8.55;100.00
44926;BME280;30662;51.210;7.656;2023-03-18T00:20:09;150948.50;;;8.59;100.00
44926;BME280;30662;51.210;7.656;2023-03-18T00:22:38;150939.66;;;8.55;100.00
44926;BME280;30662;51.210;7.656;2023-03-18T00:25:07;150949.75;;;8.60;100.00
44926;BME280;30662;51.210;7.656;2023-03-18T00:27:34;150919.44;;;8.47;100.00
44926;BME280;30662;51.210;7.656;2023-03-18T00:30:01;150939.66;;;8.55;100.00
44926;BME280;30662;51.210;7.656;2023-03-18T00:32:28;150930.78;;;8.52;100.00
44926;BME280;30662;51.210;7.656;2023-03-18T00:34:54;150948.50;;;8.59;100.00
44926;BME280;30662;51.210;7.656;2023-03-18T00:37:22;150921.97;;;8.48;100.00
44926;BME280;30662;51.210;7.656;2023-03-18T00:39:59;150923.22;;;8.49;100.00
44926;BME280;30662;51.210;7.656;2023-03-18T00:42:32;150924.50;;;8.49;100.00
44926;BME280;30662;51.210;7.656;2023-03-18T00:45:08;150925.75;;;8.50;100.00
44926;BME280;30662;51.210;7.656;2023-03-18T00:47:36;150897.91;;;8.39;100.00
44926;BME280;30662;51.210;7.656;2023-03-18T00:50:06;150887.78;;;8.35;100.00
44926;BME280;30662;51.210;7.656;2023-03-18T00:52:33;150890.34;;;8.36;100.00
44926;BME280;30662;51.210;7.656;2023-03-18T00:54:59;150880.19;;;8.32;100.00
44926;BME280;30662;51.210;7.656;2023-03-18T00:57:27;150882.69;;;8.33;100.00
44926;BME280;30662;51.210;7.656;2023-03-18T00:59:55;150901.75;;;8.40;100.00
44926;BME280;30662;51.210;7.656;2023-03-18T01:02:22;150882.69;;;8.33;100.00
44926;BME280;30662;51.210;7.656;2023-03-18T01:04:48;150896.66;;;8.38;100.00
44926;BME280;30662;51.210;7.656;2023-03-18T01:07:15;150884.00;;;8.33;100.00
44926;BME280;30662;51.210;7.656;2023-03-18T01:09:41;150866.31;;;8.26;100.00
44926;BME280;30662;51.210;7.656;2023-03-18T01:12:09;150894.13;;;8.37;100.00
44926;BME280;30662;51.210;7.656;2023-03-18T01:14:37;150905.53;;;8.42;100.00
44926;BME280;30662;51.210;7.656;2023-03-18T01:17:04;150910.56;;;8.44;100.00
44926;BME280;30662;51.210;7.656;2023-03-18T01:19:31;150904.28;;;8.41;100.00
44926;BME280;30662;51.210;7.656;2023-03-18T01:21:57;150908.06;;;8.43;100.00
44926;BME280;30662;51.210;7.656;2023-03-18T01:24:23;150899.19;;;8.39;100.00
44926;BME280;30662;51.210;7.656;2023-03-18T01:26:49;150906.78;;;8.42;100.00
44926;BME280;30662;51.210;7.656;2023-03-18T01:29:15;150901.75;;;8.40;100.00
44926;BME280;30662;51.210;7.656;2023-03-18T01:31:42;150924.50;;;8.49;100.00
44926;BME280;30662;51.210;7.656;2023-03-18T01:34:08;150923.22;;;8.49;100.00
44926;BME280;30662;51.210;7.656;2023-03-18T01:36:34;150938.41;;;8.55;100.00
44926;BME280;30662;51.210;7.656;2023-03-18T01:39:00;150925.75;;;8.50;100.00
44926;BME280;30662;51.210;7.656;2023-03-18T01:41:25;150935.84;;;8.54;100.00
44926;BME280;30662;51.210;7.656;2023-03-18T01:43:52;150930.78;;;8.52;100.00
44926;BME280;30662;51.210;7.656;2023-03-18T01:46:39;150938.41;;;8.55;100.00
44926;BME280;30662;51.210;7.656;2023-03-18T01:49:18;150939.66;;;8.55;100.00
44926;BME280;30662;51.210;7.656;2023-03-18T01:54:36;150932.06;;;8.52;100.00
44926;BME280;30662;51.210;7.656;2023-03-18T01:57:02;150934.56;;;8.53;100.00
44926;BME280;30662;51.210;7.656;2023-03-18T01:59:30;150918.13;;;8.47;100.00
44926;BME280;30662;51.210;7.656;2023-03-18T02:02:05;150910.56;;;8.44;100.00
44926;BME280;30662;51.210;7.656;2023-03-18T02:05:01;150928.28;;;8.51;100.00
44926;BME280;30662;51.210;7.656;2023-03-18T02:07:28;150920.69;;;8.48;100.00
44926;BME280;30662;51.210;7.656;2023-03-18T02:09:57;150906.78;;;8.42;100.00
44926;BME280;30662;51.210;7.656;2023-03-18T02:12:27;150906.78;;;8.42;100.00
44926;BME280;30662;51.210;7.656;2023-03-18T02:14:54;150899.19;;;8.39;100.00
44926;BME280;30662;51.210;7.656;2023-03-18T02:17:24;150933.31;;;8.53;100.00
44926;BME280;30662;51.210;7.656;2023-03-18T02:22:49;150906.78;;;8.42;100.00
44926;BME280;30662;51.210;7.656;2023-03-18T02:25:44;150910.56;;;8.44;100.00
44926;BME280;30662;51.210;7.656;2023-03-18T02:28:18;150886.53;;;8.34;100.00
44926;BME280;30662;51.210;7.656;2023-03-18T02:30:49;150906.78;;;8.42;100.00
44926;BME280;30662;51.210;7.656;2023-03-18T02:33:18;150903.00;;;8.41;100.00
44926;BME280;30662;51.210;7.656;2023-03-18T02:35:49;150889.09;;;8.35;100.00
44926;BME280;30662;51.210;7.656;2023-03-18T02:38:16;150887.78;;;8.35;100.00
44926;BME280;30662;51.210;7.656;2023-03-18T02:40:42;150891.63;;;8.36;100.00
44926;BME280;30662;51.210;7.656;2023-03-18T02:43:18;150885.25;;;8.34;100.00
44926;BME280;30662;51.210;7.656;2023-03-18T02:48:34;150897.91;;;8.39;100.00
44926;BME280;30662;51.210;7.656;2023-03-18T02:51:02;150919.44;;;8.47;100.00
44926;BME280;30662;51.210;7.656;2023-03-18T02:53:28;150901.75;;;8.40;100.00
44926;BME280;30662;51.210;7.656;2023-03-18T02:55:54;150905.53;;;8.42;100.00
44926;BME280;30662;51.210;7.656;2023-03-18T02:58:21;150897.91;;;8.39;100.00
44926;BME280;30662;51.210;7.656;2023-03-18T03:00:47;150896.66;;;8.38;100.00
44926;BME280;30662;51.210;7.656;2023-03-18T03:03:13;150903.00;;;8.41;100.00
44926;BME280;30662;51.210;7.656;2023-03-18T03:05:39;150920.69;;;8.48;100.00
44926;BME280;30662;51.210;7.656;2023-03-18T03:08:05;150906.78;;;8.42;100.00
44926;BME280;30662;51.210;7.656;2023-03-18T03:10:32;150908.06;;;8.43;100.00
44926;BME280;30662;51.210;7.656;2023-03-18T03:12:58;150915.63;;;8.46;100.00
44926;BME280;30662;51.210;7.656;2023-03-18T03:15:24;150920.69;;;8.48;100.00
44926;BME280;30662;51.210;7.656;2023-03-18T03:17:52;150938.41;;;8.55;100.00
44926;BME280;30662;51.210;7.656;2023-03-18T03:20:18;150918.13;;;8.47;100.00
44926;BME280;30662;51.210;7.656;2023-03-18T03:22:45;150906.78;;;8.42;100.00
44926;BME280;30662;51.210;7.656;2023-03-18T03:25:12;150934.56;;;8.53;100.00
44926;BME280;30662;51.210;7.656;2023-03-18T03:27:40;150925.75;;;8.50;100.00
44926;BME280;30662;51.210;7.656;2023-03-18T03:30:09;150921.97;;;8.48;100.00
44926;BME280;30662;51.210;7.656;2023-03-18T03:32:35;150914.34;;;8.45;100.00
44926;BME280;30662;51.210;7.656;2023-03-18T03:35:01;150935.84;;;8.54;100.00
44926;BME280;30662;51.210;7.656;2023-03-18T03:37:27;150915.63;;;8.46;100.00
44926;BME280;30662;51.210;7.656;2023-03-18T03:39:52;150921.97;;;8.48;100.00
44926;BME280;30662;51.210;7.656;2023-03-18T03:42:18;150906.78;;;8.42;100.00
44926;BME280;30662;51.210;7.656;2023-03-18T03:44:44;150914.34;;;8.45;100.00
44926;BME280;30662;51.210;7.656;2023-03-18T03:47:11;150916.88;;;8.46;100.00
44926;BME280;30662;51.210;7.656;2023-03-18T03:49:37;150896.66;;;8.38;100.00
44926;BME280;30662;51.210;7.656;2023-03-18T03:52:03;150877.66;;;8.30;100.00
44926;BME280;30662;51.210;7.656;2023-03-18T03:54:29;150896.66;;;8.38;100.00
44926;BME280;30662;51.210;7.656;2023-03-18T03:56:56;150876.41;;;8.30;100.00
44926;BME280;30662;51.210;7.656;2023-03-18T03:59:22;150865.00;;;8.25;100.00
44926;BME280;30662;51.210;7.656;2023-03-18T04:01:48;150830.94;;;8.12;100.00
44926;BME280;30662;51.210;7.656;2023-03-18T04:04:14;150847.31;;;8.18;100.00
44926;BME280;30662;51.210;7.656;2023-03-18T04:06:41;150848.63;;;8.19;100.00
44926;BME280;30662;51.210;7.656;2023-03-18T04:09:07;150825.84;;;8.10;100.00
44926;BME280;30662;51.210;7.656;2023-03-18T04:11:34;150800.59;;;7.99;100.00
44926;BME280;30662;51.210;7.656;2023-03-18T04:13:59;150817.00;;;8.06;100.00
44926;BME280;30662;51.210;7.656;2023-03-18T04:16:26;150818.28;;;8.07;100.00
44926;BME280;30662;51.210;7.656;2023-03-18T04:18:53;150815.75;;;8.06;100.00
44926;BME280;30662;51.210;7.656;2023-03-18T04:21:18;150835.97;;;8.14;100.00
44926;BME280;30662;51.210;7.656;2023-03-18T04:23:44;150820.78;;;8.08;100.00
44926;BME280;30662;51.210;7.656;2023-03-18T04:26:11;150842.28;;;8.16;100.00
44926;BME280;30662;51.210;7.656;2023-03-18T04:28:37;150820.78;;;8.08;100.00
44926;BME280;30662;51.210;7.656;2023-03-18T04:31:05;150800.59;;;7.99;100.00
44926;BME280;30662;51.210;7.656;2023-03-18T04:33:31;150799.31;;;7.99;100.00
44926;BME280;30662;51.210;7.656;2023-03-18T04:35:56;150790.47;;;7.95;100.00
44926;BME280;30662;51.210;7.656;2023-03-18T04:38:22;150796.81;;;7.98;100.00
44926;BME280;30662;51.210;7.656;2023-03-18T04:40:49;150786.69;;;7.94;100.00
44926;BME280;30662;51.210;7.656;2023-03-18T04:43:14;150779.13;;;7.91;100.00
44926;BME280;30662;51.210;7.656;2023-03-18T04:45:40;150771.50;;;7.88;100.00
44926;BME280;30662;51.210;7.656;2023-03-18T04:48:06;150772.75;;;7.88;100.00
44926;BME280;30662;51.210;7.656;2023-03-18T04:50:32;150787.94;;;7.94;100.00
44926;BME280;30662;51.210;7.656;2023-03-18T04:52:59;150777.84;;;7.90;100.00
44926;BME280;30662;51.210;7.656;2023-03-18T04:55:25;150780.38;;;7.91;100.00
44926;BME280;30662;51.210;7.656;2023-03-18T04:57:51;150768.97;;;7.87;100.00
44926;BME280;30662;51.210;7.656;2023-03-18T05:00:18;150784.16;;;7.93;100.00
44926;BME280;30662;51.210;7.656;2023-03-18T05:02:48;150770.25;;;7.87;100.00
44926;BME280;30662;51.210;7.656;2023-03-18T05:05:19;150780.38;;;7.91;100.00
44926;BME280;30662;51.210;7.656;2023-03-18T05:07:45;150776.59;;;7.90;100.00
44926;BME280;30662;51.210;7.656;2023-03-18T05:10:11;150753.81;;;7.81;100.00
44926;BME280;30662;51.210;7.656;2023-03-18T05:12:37;150733.59;;;7.72;100.00
44926;BME280;30662;51.210;7.656;2023-03-18T05:15:04;150763.94;;;7.85;100.00
44926;BME280;30662;51.210;7.656;2023-03-18T05:17:30;150734.88;;;7.73;100.00
44926;BME280;30662;51.210;7.656;2023-03-18T05:19:56;150729.81;;;7.71;100.00
44926;BME280;30662;51.210;7.656;2023-03-18T05:22:22;150742.47;;;7.76;100.00
44926;BME280;30662;51.210;7.656;2023-03-18T05:24:48;150727.31;;;7.70;100.00
44926;BME280;30662;51.210;7.656;2023-03-18T05:27:17;150737.38;;;7.74;100.00
44926;BME280;30662;51.210;7.656;2023-03-18T05:29:44;150732.34;;;7.72;100.00
44926;BME280;30662;51.210;7.656;2023-03-18T05:32:10;150739.97;;;7.75;100.00
44926;BME280;30662;51.210;7.656;2023-03-18T05:34:38;150757.66;;;7.82;100.00
44926;BME280;30662;51.210;7.656;2023-03-18T05:37:06;150747.50;;;7.78;100.00
44926;BME280;30662;51.210;7.656;2023-03-18T05:39:33;150748.78;;;7.79;100.00
44926;BME280;30662;51.210;7.656;2023-03-18T05:41:59;150752.56;;;7.80;100.00
44926;BME280;30662;51.210;7.656;2023-03-18T05:44:26;150739.97;;;7.75;100.00
44926;BME280;30662;51.210;7.656;2023-03-18T05:46:51;150776.59;;;7.90;100.00
44926;BME280;30662;51.210;7.656;2023-03-18T05:49:19;150772.75;;;7.88;100.00
44926;BME280;30662;51.210;7.656;2023-03-18T05:51:45;150774.03;;;7.89;100.00
44926;BME280;30662;51.210;7.656;2023-03-18T05:54:12;150775.28;;;7.89;100.00
44926;BME280;30662;51.210;7.656;2023-03-18T05:56:38;150753.81;;;7.81;100.00
44926;BME280;30662;51.210;7.656;2023-03-18T05:59:05;150756.34;;;7.82;100.00
44926;BME280;30662;51.210;7.656;2023-03-18T06:01:32;150761.44;;;7.84;100.00
44926;BME280;30662;51.210;7.656;2023-03-18T06:03:58;150756.34;;;7.82;100.00
44926;BME280;30662;51.210;7.656;2023-03-18T06:06:25;150774.03;;;7.89;100.00
44926;BME280;30662;51.210;7.656;2023-03-18T06:08:51;150809.41;;;8.03;100.00
44926;BME280;30662;51.210;7.656;2023-03-18T06:11:18;150800.59;;;7.99;100.00
44926;BME280;30662;51.210;7.656;2023-03-18T06:13:44;150809.41;;;8.03;100.00
44926;BME280;30662;51.210;7.656;2023-03-18T06:16:10;150782.91;;;7.92;100.00
44926;BME280;30662;51.210;7.656;2023-03-18T06:18:37;150772.75;;;7.88;100.00
44926;BME280;30662;51.210;7.656;2023-03-18T06:21:03;150757.66;;;7.82;100.00
44926;BME280;30662;51.210;7.656;2023-03-18T06:23:29;150784.16;;;7.93;100.00
44926;BME280;30662;51.210;7.656;2023-03-18T06:25:57;150809.41;;;8.03;100.00
44926;BME280;30662;51.210;7.656;2023-03-18T06:28:22;150799.31;;;7.99;100.00
44926;BME280;30662;51.210;7.656;2023-03-18T06:30:49;150795.53;;;7.97;100.00
44926;BME280;30662;51.210;7.656;2023-03-18T06:33:15;150814.50;;;8.05;100.00
44926;BME280;30662;51.210;7.656;2023-03-18T06:35:41;150814.50;;;8.05;100.00
44926;BME280;30662;51.210;7.656;2023-03-18T06:38:07;150829.66;;;8.11;100.00
44926;BME280;30662;51.210;7.656;2023-03-18T06:40:35;150827.09;;;8.10;100.00
44926;BME280;30662;51.210;7.656;2023-03-18T06:43:01;150842.28;;;8.16;100.00
44926;BME280;30662;51.210;7.656;2023-03-18T06:45:26;150872.63;;;8.28;100.00
44926;BME280;30662;51.210;7.656;2023-03-18T06:47:52;150857.44;;;8.22;100.00
44926;BME280;30662;51.210;7.656;2023-03-18T06:50:18;150859.97;;;8.23;100.00
44926;BME280;30662;51.210;7.656;2023-03-18T06:52:45;150867.56;;;8.26;100.00
44926;BME280;30662;51.210;7.656;2023-03-18T06:55:11;150839.75;;;8.15;100.00
44926;BME280;30662;51.210;7.656;2023-03-18T06:57:37;150880.19;;;8.32;100.00
44926;BME280;30662;51.210;7.656;2023-03-18T07:00:03;150880.19;;;8.32;100.00
44926;BME280;30662;51.210;7.656;2023-03-18T07:02:29;150876.41;;;8.30;100.00
44926;BME280;30662;51.210;7.656;2023-03-18T07:04:56;150906.78;;;8.42;100.00
44926;BME280;30662;51.210;7.656;2023-03-18T07:07:22;150903.00;;;8.41;100.00
44926;BME280;30662;51.210;7.656;2023-03-18T07:09:49;150918.13;;;8.47;100.00
44926;BME280;30662;51.210;7.656;2023-03-18T07:12:15;150908.06;;;8.43;100.00
44926;BME280;30662;51.210;7.656;2023-03-18T07:14:41;150908.06;;;8.43;100.00
44926;BME280;30662;51.210;7.656;2023-03-18T07:17:06;150881.44;;;8.32;100.00
44926;BME280;30662;51.210;7.656;2023-03-18T07:19:32;150891.63;;;8.36;100.00
44926;BME280;30662;51.210;7.656;2023-03-18T07:21:59;150872.63;;;8.28;100.00
44926;BME280;30662;51.210;7.656;2023-03-18T07:24:25;150890.34;;;8.36;100.00
44926;BME280;30662;51.210;7.656;2023-03-18T07:26:51;150909.31;;;8.43;100.00
44926;BME280;30662;51.210;7.656;2023-03-18T07:29:18;150897.91;;;8.39;100.00
44926;BME280;30662;51.210;7.656;2023-03-18T07:31:45;150910.56;;;8.44;100.00
44926;BME280;30662;51.210;7.656;2023-03-18T07:34:12;150890.34;;;8.36;100.00
44926;BME280;30662;51.210;7.656;2023-03-18T07:36:40;150884.00;;;8.33;100.00
44926;BME280;30662;51.210;7.656;2023-03-18T07:39:06;150915.63;;;8.46;100.00
44926;BME280;30662;51.210;7.656;2023-03-18T07:41:35;150913.09;;;8.45;100.00
44926;BME280;30662;51.210;7.656;2023-03-18T07:44:03;150906.78;;;8.42;100.00
44926;BME280;30662;51.210;7.656;2023-03-18T07:46:29;150929.53;;;8.51;100.00
44926;BME280;30662;51.210;7.656;2023-03-18T07:48:55;150944.72;;;8.57;100.00
44926;BME280;30662;51.210;7.656;2023-03-18T07:51:21;150968.72;;;8.67;100.00
44926;BME280;30662;51.210;7.656;2023-03-18T07:53:47;150918.13;;;8.47;100.00
44926;BME280;30662;51.210;7.656;2023-03-18T07:56:15;150920.69;;;8.48;100.00
44926;BME280;30662;51.210;7.656;2023-03-18T07:58:41;150947.22;;;8.59;100.00
44926;BME280;30662;51.210;7.656;2023-03-18T08:01:08;150945.97;;;8.58;100.00
44926;BME280;30662;51.210;7.656;2023-03-18T08:03:34;150975.06;;;8.70;100.00
44926;BME280;30662;51.210;7.656;2023-03-18T08:06:00;150945.97;;;8.58;100.00
44926;BME280;30662;51.210;7.656;2023-03-18T08:08:27;150939.66;;;8.55;100.00
44926;BME280;30662;51.210;7.656;2023-03-18T08:10:57;150918.13;;;8.47;100.00
44926;BME280;30662;51.210;7.656;2023-03-18T08:13:25;150894.13;;;8.37;100.00
44926;BME280;30662;51.210;7.656;2023-03-18T08:15:52;150943.44;;;8.57;100.00
44926;BME280;30662;51.210;7.656;2023-03-18T08:18:17;150964.94;;;8.66;100.00
44926;BME280;30662;51.210;7.656;2023-03-18T08:20:44;150958.63;;;8.63;100.00
44926;BME280;30662;51.210;7.656;2023-03-18T08:23:10;150980.09;;;8.72;100.00
44926;BME280;30662;51.210;7.656;2023-03-18T08:25:37;150991.50;;;8.76;100.00
44926;BME280;30662;51.210;7.656;2023-03-18T08:28:03;150991.50;;;8.76;100.00
44926;BME280;30662;51.210;7.656;2023-03-18T08:30:33;151028.16;;;8.91;100.00
44926;BME280;30662;51.210;7.656;2023-03-18T08:32:59;151024.34;;;8.90;100.00
44926;BME280;30662;51.210;7.656;2023-03-18T08:35:25;151054.69;;;9.02;100.00
44926;BME280;30662;51.210;7.656;2023-03-18T08:37:52;151101.50;;;9.21;100.00
44926;BME280;30662;51.210;7.656;2023-03-18T08:40:18;151101.50;;;9.21;100.00
44926;BME280;30662;51.210;7.656;2023-03-18T08:42:45;151117.94;;;9.27;100.00
44926;BME280;30662;51.210;7.656;2023-03-18T08:45:11;151140.69;;;9.36;100.00
44926;BME280;30662;51.210;7.656;2023-03-18T08:47:38;151144.47;;;9.38;100.00
44926;BME280;30662;51.210;7.656;2023-03-18T08:50:05;151165.97;;;9.47;100.00
44926;BME280;30662;51.210;7.656;2023-03-18T08:52:31;151203.91;;;9.62;100.00
44926;BME280;30662;51.210;7.656;2023-03-18T08:54:57;151209.03;;;9.64;100.00
44926;BME280;30662;51.210;7.656;2023-03-18T08:57:23;151219.09;;;9.68;100.00
44926;BME280;30662;51.210;7.656;2023-03-18T08:59:52;151246.97;;;9.79;100.00
44926;BME280;30662;51.210;7.656;2023-03-18T09:02:18;151214.06;;;9.66;100.00
44926;BME280;30662;51.210;7.656;2023-03-18T09:04:45;151292.50;;;9.98;100.00
44926;BME280;30662;51.210;7.656;2023-03-18T09:07:12;151252.00;;;9.81;100.00
44926;BME280;30662;51.210;7.656;2023-03-18T09:09:38;151254.53;;;9.82;100.00
44926;BME280;30662;51.210;7.656;2023-03-18T09:12:10;151269.72;;;9.88;100.00
44926;BME280;30662;51.210;7.656;2023-03-18T09:14:37;151262.16;;;9.85;100.00
44926;BME280;30662;51.210;7.656;2023-03-18T09:17:03;151259.59;;;9.84;100.00
44926;BME280;30662;51.210;7.656;2023-03-18T09:19:29;151305.16;;;10.03;100.00
44926;BME280;30662;51.210;7.656;2023-03-18T09:21:55;151388.75;;;10.36;100.00
44926;BME280;30662;51.210;7.656;2023-03-18T09:24:21;151403.91;;;10.42;100.00
44926;BME280;30662;51.210;7.656;2023-03-18T09:26:47;151476.06;;;10.71;100.00
44926;BME280;30662;51.210;7.656;2023-03-18T09:29:13;151557.13;;;11.04;100.00
44926;BME280;30662;51.210;7.656;2023-03-18T09:31:40;151606.53;;;11.24;100.00
44926;BME280;30662;51.210;7.656;2023-03-18T09:34:06;151609.06;;;11.25;100.00
44926;BME280;30662;51.210;7.656;2023-03-18T09:36:31;151672.38;;;11.50;100.00
44926;BME280;30662;51.210;7.656;2023-03-18T09:38:58;151691.38;;;11.58;100.00
44926;BME280;30662;51.210;7.656;2023-03-18T09:42:06;151691.38;;;11.58;100.00
44926;BME280;30662;51.210;7.656;2023-03-18T09:44:35;151676.19;;;11.52;100.00
44926;BME280;30662;51.210;7.656;2023-03-18T09:50:25;151648.31;;;11.41;100.00
44926;BME280;30662;51.210;7.656;2023-03-18T09:53:25;151640.72;;;11.38;100.00
44926;BME280;30662;51.210;7.656;2023-03-18T09:55:58;151781.38;;;11.94;100.00
44926;BME280;30662;51.210;7.656;2023-03-18T09:58:30;151768.72;;;11.89;100.00
44926;BME280;30662;51.210;7.656;2023-03-18T10:01:01;151702.78;;;11.63;100.00
44926;BME280;30662;51.210;7.656;2023-03-18T10:03:41;151709.09;;;11.65;100.00
44926;BME280;30662;51.210;7.656;2023-03-18T10:06:23;151754.78;;;11.83;100.00
44926;BME280;30662;51.210;7.656;2023-03-18T10:11:43;151695.19;;;11.59;100.00
44926;BME280;30662;51.210;7.656;2023-03-18T10:17:29;151866.31;;;12.28;100.00
44926;BME280;30662;51.210;7.656;2023-03-18T10:20:00;152055.22;;;13.04;100.00
44926;BME280;30662;51.210;7.656;2023-03-18T10:34:01;152442.31;;;14.59;91.97
44926;BME280;30662;51.210;7.656;2023-03-18T10:36:54;152414.34;;;14.48;90.68
44926;BME280;30662;51.210;7.656;2023-03-18T10:39:28;152546.44;;;15.01;89.74
44926;BME280;30662;51.210;7.656;2023-03-18T10:41:57;152455.03;;;14.65;87.64
44926;BME280;30662;51.210;7.656;2023-03-18T10:44:29;152542.63;;;15.00;87.58
44926;BME280;30662;51.210;7.656;2023-03-18T10:47:00;152505.81;;;14.85;84.88
44926;BME280;30662;51.210;7.656;2023-03-18T10:49:30;152446.09;;;14.61;86.02
44926;BME280;30662;51.210;7.656;2023-03-18T10:52:13;152574.34;;;15.12;83.41
44926;BME280;30662;51.210;7.656;2023-03-18T10:54:44;152710.34;;;15.67;79.09
44926;BME280;30662;51.210;7.656;2023-03-18T10:57:15;152884.41;;;16.37;75.03
44926;BME280;30662;51.210;7.656;2023-03-18T10:59:42;153086.63;;;17.18;72.59
44926;BME280;30662;51.210;7.656;2023-03-18T11:02:42;152936.53;;;16.58;72.63
44926;BME280;30662;51.210;7.656;2023-03-18T11:05:17;152992.50;;;16.80;71.35
44926;BME280;30662;51.210;7.656;2023-03-18T11:08:07;152960.72;;;16.67;71.83
44926;BME280;30662;51.210;7.656;2023-03-18T11:10:53;153090.44;;;17.19;64.42
44926;BME280;30662;51.210;7.656;2023-03-18T11:13:20;152976.03;;;16.73;67.39
44926;BME280;30662;51.210;7.656;2023-03-18T11:15:51;152857.72;;;16.26;71.21
44926;BME280;30662;51.210;7.656;2023-03-18T11:18:22;152925.09;;;16.53;71.38
44926;BME280;30662;51.210;7.656;2023-03-18T11:20:57;152992.50;;;16.80;64.89
44926;BME280;30662;51.210;7.656;2023-03-18T11:23:35;153045.91;;;17.01;66.05
44926;BME280;30662;51.210;7.656;2023-03-18T11:26:19;153204.91;;;17.65;64.66
44926;BME280;30662;51.210;7.656;2023-03-18T11:28:46;153197.28;;;17.62;61.57
44926;BME280;30662;51.210;7.656;2023-03-18T11:31:16;153243.13;;;17.80;60.62
44926;BME280;30662;51.210;7.656;2023-03-18T11:33:45;153110.78;;;17.27;61.61
44926;BME280;30662;51.210;7.656;2023-03-18T11:36:17;152851.41;;;16.23;66.53
44926;BME280;30662;51.210;7.656;2023-03-18T11:39:00;153077.72;;;17.14;64.81
44926;BME280;30662;51.210;7.656;2023-03-18T11:41:27;153425.09;;;18.53;60.00
44926;BME280;30662;51.210;7.656;2023-03-18T11:46:29;153305.50;;;18.05;57.37
44926;BME280;30662;51.210;7.656;2023-03-18T11:48:58;153182.03;;;17.56;59.41
44926;BME280;30662;51.210;7.656;2023-03-18T11:51:30;152997.63;;;16.82;63.20
44926;BME280;30662;51.210;7.656;2023-03-18T11:56:57;152822.16;;;16.12;65.03
44926;BME280;30662;51.210;7.656;2023-03-18T12:10:35;153605.94;;;19.25;54.64
44926;BME280;30662;51.210;7.656;2023-03-18T12:15:39;153697.66;;;19.62;52.44
44926;BME280;30662;51.210;7.656;2023-03-18T12:18:12;153617.41;;;19.30;53.18
44926;BME280;30662;51.210;7.656;2023-03-18T12:20:54;153246.97;;;17.82;55.10
44926;BME280;30662;51.210;7.656;2023-03-18T12:23:45;152881.88;;;16.36;61.94
44926;BME280;30662;51.210;7.656;2023-03-18T12:26:34;152737.00;;;15.78;67.45
44926;BME280;30662;51.210;7.656;2023-03-18T12:32:05;152842.47;;;16.20;67.48
44926;BME280;30662;51.210;7.656;2023-03-18T12:34:54;152857.72;;;16.26;67.00
44926;BME280;30662;51.210;7.656;2023-03-18T12:38:21;152961.97;;;16.68;65.59
44926;BME280;30662;51.210;7.656;2023-03-18T12:46:28;152794.16;;;16.00;67.27
44926;BME280;30662;51.210;7.656;2023-03-18T12:51:44;152723.06;;;15.72;70.03
44926;BME280;30662;51.210;7.656;2023-03-18T12:54:24;152615.03;;;15.29;71.67
44926;BME280;30662;51.210;7.656;2023-03-18T12:56:57;152557.84;;;15.06;73.66
44926;BME280;30662;51.210;7.656;2023-03-18T12:59:46;152457.56;;;14.66;76.03
44926;BME280;30662;51.210;7.656;2023-03-18T13:05:03;152531.19;;;14.95;72.06
44926;BME280;30662;51.210;7.656;2023-03-18T13:07:39;152578.19;;;15.14;73.57
44926;BME280;30662;51.210;7.656;2023-03-18T13:10:35;152564.22;;;15.08;73.77
44926;BME280;30662;51.210;7.656;2023-03-18T13:13:05;152613.75;;;15.28;73.38
44926;BME280;30662;51.210;7.656;2023-03-18T13:15:40;152627.69;;;15.34;71.41
44926;BME280;30662;51.210;7.656;2023-03-18T13:21:20;152566.75;;;15.09;73.19
44926;BME280;30662;51.210;7.656;2023-03-18T13:24:35;152508.34;;;14.86;72.37
44926;BME280;30662;51.210;7.656;2023-03-18T13:27:14;152622.63;;;15.32;71.08
44926;BME280;30662;51.210;7.656;2023-03-18T13:29:55;152776.41;;;15.93;67.32
44926;BME280;30662;51.210;7.656;2023-03-18T13:35:51;153157.88;;;17.46;60.12
44926;BME280;30662;51.210;7.656;2023-03-18T13:38:28;153175.69;;;17.53;58.37
44926;BME280;30662;51.210;7.656;2023-03-18T13:41:59;153319.50;;;18.11;57.16
44926;BME280;30662;51.210;7.656;2023-03-18T13:44:10;153299.09;;;18.03;56.42
44926;BME280;30662;51.210;7.656;2023-03-18T13:46:40;153367.81;;;18.30;56.85
44926;BME280;30662;51.210;7.656;2023-03-18T13:49:16;153381.84;;;18.36;55.37
44926;BME280;30662;51.210;7.656;2023-03-18T13:51:52;153299.09;;;18.03;56.57
44926;BME280;30662;51.210;7.656;2023-03-18T13:54:20;153282.56;;;17.96;56.11
44926;BME280;30662;51.210;7.656;2023-03-18T13:56:50;153117.13;;;17.30;56.92
44926;BME280;30662;51.210;7.656;2023-03-18T14:02:22;152890.78;;;16.39;57.70
44926;BME280;30662;51.210;7.656;2023-03-18T14:04:53;152848.84;;;16.22;58.87
44926;BME280;30662;51.210;7.656;2023-03-18T14:07:23;152817.06;;;16.10;59.51
44926;BME280;30662;51.210;7.656;2023-03-18T14:12:44;152894.59;;;16.41;62.16
44926;BME280;30662;51.210;7.656;2023-03-18T14:17:56;152621.34;;;15.31;65.80
44926;BME280;30662;51.210;7.656;2023-03-18T14:20:26;152505.81;;;14.85;67.73